createdAt,value
2022-11-19T00:02:24.202Z,5.50
2022-11-19T00:07:27.566Z,5.50
2022-11-19T00:12:49.029Z,5.60
2022-11-19T00:17:53.905Z,5.60
2022-11-19T00:22:58.610Z,5.60
2022-11-19T00:28:01.869Z,5.60
2022-11-19T00:33:06.623Z,5.60
2022-11-19T00:38:09.902Z,5.60
2022-11-19T00:43:30.706Z,5.60
2022-11-19T00:48:35.830Z,5.60
2022-11-19T00:53:39.547Z,5.60
2022-11-19T00:58:43.490Z,5.60
2022-11-19T01:03:49.198Z,5.60
2022-11-19T01:08:54.183Z,5.50
2022-11-19T01:13:57.508Z,5.40
2022-11-19T01:19:02.897Z,5.40
2022-11-19T01:24:07.609Z,5.30
2022-11-19T01:29:10.984Z,5.40
2022-11-19T01:34:20.095Z,5.40
2022-11-19T01:39:23.389Z,5.50
2022-11-19T01:45:02.249Z,5.50
2022-11-19T01:50:07.691Z,5.60
2022-11-19T01:55:12.615Z,5.60
2022-11-19T02:00:17.316Z,5.60
2022-11-19T02:05:23.954Z,5.60
2022-11-19T02:10:41.992Z,5.50
2022-11-19T02:15:51.851Z,5.50
2022-11-19T02:21:03.977Z,5.50
2022-11-19T02:26:43.000Z,5.50
2022-11-19T02:31:55.755Z,5.50
2022-11-19T02:37:03.986Z,5.50
2022-11-19T02:42:14.604Z,5.60
2022-11-19T02:47:22.574Z,5.50
2022-11-19T02:52:26.016Z,5.50
2022-11-19T02:57:29.291Z,5.50
2022-11-19T03:02:55.677Z,5.60
2022-11-19T03:07:59.203Z,5.60
2022-11-19T03:13:26.420Z,5.60
2022-11-19T03:18:34.422Z,5.60
2022-11-19T03:23:42.419Z,5.60
2022-11-19T03:28:48.670Z,5.60
2022-11-19T03:33:55.947Z,5.70
2022-11-19T03:39:03.276Z,5.70
2022-11-19T03:44:13.126Z,5.60
2022-11-19T03:49:22.210Z,5.60
2022-11-19T03:54:25.571Z,5.60
2022-11-19T03:59:30.268Z,5.50
2022-11-19T04:04:38.388Z,5.40
2022-11-19T04:09:43.087Z,5.40
2022-11-19T04:14:46.940Z,5.40
2022-11-19T04:19:51.607Z,5.40
2022-11-19T04:24:54.797Z,5.40
2022-11-19T04:29:58.099Z,5.40
2022-11-19T04:35:02.944Z,5.40
2022-11-19T04:40:07.402Z,5.40
2022-11-19T04:45:12.023Z,5.40
2022-11-19T04:50:17.390Z,5.30
2022-11-19T04:55:21.779Z,5.40
2022-11-19T05:00:25.485Z,5.30
2022-11-19T05:05:30.471Z,5.30
2022-11-19T05:10:33.968Z,5.30
2022-11-19T05:15:37.382Z,5.30
2022-11-19T05:20:42.567Z,5.30
2022-11-19T05:25:45.954Z,5.30
2022-11-19T05:30:49.583Z,5.30
2022-11-19T05:35:54.262Z,5.40
2022-11-19T05:40:57.789Z,5.40
2022-11-19T05:46:02.014Z,5.30
2022-11-19T05:51:07.053Z,5.40
2022-11-19T05:56:10.560Z,5.30
2022-11-19T06:01:16.745Z,5.30
2022-11-19T06:06:21.704Z,5.40
2022-11-19T06:11:42.256Z,5.40
2022-11-19T06:16:45.735Z,5.40
2022-11-19T06:21:51.683Z,5.40
2022-11-19T06:26:55.044Z,5.40
2022-11-19T06:31:58.268Z,5.40
2022-11-19T06:37:03.280Z,5.50
2022-11-19T06:42:24.013Z,5.50
2022-11-19T06:47:31.407Z,5.50
2022-11-19T06:52:36.109Z,5.40
2022-11-19T06:57:39.397Z,5.30
2022-11-19T07:02:42.561Z,5.20
2022-11-19T07:07:47.273Z,5.30
2022-11-19T07:12:50.579Z,5.40
2022-11-19T07:17:54.717Z,5.50
2022-11-19T07:22:59.651Z,5.60
2022-11-19T07:28:02.921Z,5.70
2022-11-19T07:33:06.135Z,5.70
2022-11-19T07:38:10.898Z,5.80
2022-11-19T07:43:14.048Z,5.80
2022-11-19T07:48:17.798Z,5.80
2022-11-19T07:53:22.407Z,5.90
2022-11-19T07:58:25.663Z,6.00
2022-11-19T08:03:28.862Z,6.00
2022-11-19T08:08:34.027Z,6.10
2022-11-19T08:13:37.774Z,6.10
2022-11-19T08:18:41.627Z,6.20
2022-11-19T08:48:29.765Z,7.00
2022-11-19T08:53:33.164Z,7.50
2022-11-19T08:58:38.731Z,7.70
2022-11-19T09:03:44.067Z,8.10
2022-11-19T09:08:47.714Z,7.90
2022-11-19T09:13:52.131Z,7.70
2022-11-19T09:18:56.909Z,7.50
2022-11-19T09:24:00.215Z,7.60
2022-11-19T09:29:04.023Z,7.60
2022-11-19T09:34:09.000Z,7.50
2022-11-19T09:39:12.402Z,7.30
2022-11-19T09:44:34.176Z,7.30
2022-11-19T09:49:43.386Z,7.40
2022-11-19T09:54:51.329Z,7.60
2022-11-19T09:59:58.711Z,7.80
2022-11-19T10:05:04.321Z,7.90
2022-11-19T10:10:24.613Z,8.00
2022-11-19T10:15:37.640Z,8.00
2022-11-19T10:21:11.845Z,8.10
2022-11-19T10:26:18.517Z,8.50
2022-11-19T10:31:31.424Z,8.40
2022-11-19T10:36:42.436Z,8.00
2022-11-19T10:41:50.663Z,7.90
2022-11-19T10:46:54.081Z,8.00
2022-11-19T10:51:59.395Z,8.30
2022-11-19T10:57:03.025Z,8.60
2022-11-19T11:02:27.816Z,8.60
2022-11-19T11:07:58.231Z,8.60
2022-11-19T11:13:47.131Z,8.90
2022-11-19T11:18:51.229Z,8.70
2022-11-19T11:23:56.850Z,8.80
2022-11-19T11:29:03.243Z,8.70
2022-11-19T11:34:08.282Z,8.80
2022-11-19T11:39:26.803Z,8.70
2022-11-19T11:44:33.843Z,8.50
2022-11-19T11:49:41.113Z,8.30
2022-11-19T11:55:00.864Z,8.20
2022-11-19T12:00:26.515Z,8.40
2022-11-19T12:05:40.840Z,8.30
2022-11-19T12:10:51.027Z,8.30
2022-11-19T12:16:06.437Z,8.20
2022-11-19T12:21:42.780Z,8.50
2022-11-19T13:04:37.990Z,9.10
2022-11-19T13:09:45.794Z,8.90
2022-11-19T13:14:55.211Z,8.90
2022-11-19T13:20:04.701Z,9.10
2022-11-19T13:25:20.118Z,9.20
2022-11-19T13:30:26.838Z,9.20
2022-11-19T13:35:38.628Z,9.10
2022-11-19T13:40:46.630Z,8.90
2022-11-19T13:46:01.076Z,9.10
2022-11-19T13:51:10.119Z,9.10
2022-11-19T13:56:17.408Z,8.80
2022-11-19T14:01:52.351Z,8.80
2022-11-19T14:07:40.667Z,8.70
2022-11-19T14:13:04.156Z,8.50
2022-11-19T14:18:34.412Z,8.20
2022-11-19T14:24:07.312Z,8.20
2022-11-19T14:29:50.319Z,8.50
2022-11-19T14:35:30.645Z,8.70
2022-11-19T14:40:43.833Z,8.90
2022-11-19T14:46:22.599Z,9.00
2022-11-19T14:51:36.201Z,8.70
2022-11-19T14:57:00.558Z,8.40
2022-11-19T15:17:16.238Z,8.10
2022-11-19T15:22:36.223Z,7.80
2022-11-19T15:27:52.484Z,7.60
2022-11-19T15:38:32.506Z,7.40
2022-11-19T15:43:43.243Z,7.10
2022-11-19T15:49:04.463Z,7.00
2022-11-19T15:54:13.779Z,6.70
2022-11-19T15:59:31.928Z,6.40
2022-11-19T16:04:58.082Z,6.00
2022-11-19T16:10:03.663Z,5.70
2022-11-19T16:15:39.836Z,5.40
2022-11-19T16:20:52.083Z,5.10
2022-11-19T16:26:02.809Z,4.80
2022-11-19T16:31:07.448Z,4.60
2022-11-19T16:36:15.684Z,4.60
2022-11-19T16:41:46.431Z,4.70
2022-11-19T16:47:27.236Z,5.10
2022-11-19T16:52:43.031Z,5.50
2022-11-19T16:57:54.474Z,5.70
2022-11-19T17:03:19.239Z,5.90
2022-11-19T17:08:27.052Z,5.90
2022-11-19T17:13:36.519Z,5.90
2022-11-19T17:18:43.997Z,5.80
2022-11-19T17:23:50.431Z,5.70
2022-11-19T17:29:10.729Z,5.60
2022-11-19T17:34:24.259Z,5.60
2022-11-19T17:39:47.590Z,5.60
2022-11-19T17:45:09.225Z,5.50
2022-11-19T17:50:16.284Z,5.60
2022-11-19T17:55:22.731Z,5.60
2022-11-19T18:00:28.037Z,5.60
2022-11-19T18:05:58.299Z,5.60
2022-11-19T18:11:02.687Z,5.60
2022-11-19T18:16:15.394Z,5.60
2022-11-19T18:21:21.373Z,5.60
2022-11-19T18:26:24.887Z,5.60
2022-11-19T18:31:30.365Z,5.60
2022-11-19T18:36:33.976Z,5.70
2022-11-19T18:42:27.368Z,5.70
2022-11-19T18:47:34.193Z,5.70
2022-11-19T18:52:37.689Z,5.70
2022-11-19T18:57:43.155Z,5.60
2022-11-19T19:02:56.317Z,5.60
2022-11-19T19:08:01.901Z,5.60
2022-11-19T19:13:05.321Z,5.60
2022-11-19T19:18:11.416Z,5.60
2022-11-19T19:23:14.932Z,5.70
2022-11-19T19:28:29.440Z,5.70
2022-11-19T19:33:34.786Z,5.70
2022-11-19T19:38:40.759Z,5.60
2022-11-19T19:43:44.109Z,5.70
2022-11-19T19:48:54.700Z,5.70
2022-11-19T19:53:58.319Z,5.70
2022-11-19T19:59:02.815Z,5.70
2022-11-19T20:04:09.235Z,5.70
2022-11-19T20:09:15.146Z,5.60
2022-11-19T20:14:18.446Z,5.60
2022-11-19T20:19:24.694Z,5.60
2022-11-19T20:24:28.495Z,5.60
2022-11-19T20:29:31.786Z,5.60
2022-11-19T20:34:37.759Z,5.60
2022-11-19T20:39:42.283Z,5.60
2022-11-19T20:44:45.740Z,5.60
2022-11-19T20:49:50.716Z,5.60
2022-11-19T20:55:06.372Z,5.60
2022-11-19T21:00:20.583Z,5.60
2022-11-19T21:05:25.501Z,5.60
2022-11-19T21:10:28.869Z,5.60
2022-11-19T21:15:37.029Z,5.60
2022-11-19T21:20:41.866Z,5.60
2022-11-19T21:25:45.406Z,5.70
2022-11-19T21:30:52.758Z,5.70
2022-11-19T21:35:58.621Z,5.70
2022-11-19T21:41:02.600Z,5.70
2022-11-19T21:46:08.546Z,5.70
2022-11-19T21:51:17.949Z,5.50
2022-11-19T21:56:25.240Z,5.40
2022-11-19T22:01:29.660Z,5.20
2022-11-19T22:06:35.561Z,5.00
2022-11-19T22:11:40.021Z,5.00
2022-11-19T22:17:18.607Z,5.10
2022-11-19T22:22:23.491Z,5.20
2022-11-19T22:27:32.404Z,5.30
2022-11-19T22:32:37.969Z,5.30
2022-11-19T22:37:42.716Z,5.40
2022-11-19T22:42:50.840Z,5.50
2022-11-19T22:48:05.330Z,5.40
2022-11-19T22:53:10.621Z,5.30
2022-11-19T22:58:14.230Z,5.30
2022-11-19T23:03:18.057Z,5.30
2022-11-19T23:08:23.067Z,5.20
2022-11-19T23:13:33.207Z,5.00
2022-11-19T23:18:38.610Z,4.80
2022-11-19T23:23:52.253Z,4.60
2022-11-19T23:28:56.325Z,4.40
2022-11-19T23:34:09.223Z,4.10
2022-11-19T23:39:19.820Z,3.90
2022-11-19T23:44:24.521Z,3.80
2022-11-19T23:49:28.089Z,3.70
2022-11-19T23:54:35.122Z,3.70
2022-11-19T23:59:38.851Z,3.70
